createdAt,value
2022-12-15T00:02:36.195Z,100726.59
2022-12-15T00:05:23.375Z,100718.22
2022-12-15T00:08:08.973Z,100725.03
2022-12-15T00:10:54.774Z,100730.50
2022-12-15T00:13:40.898Z,100734.09
2022-12-15T00:16:26.843Z,100725.09
2022-12-15T00:19:12.297Z,100735.88
2022-12-15T00:21:58.263Z,100723.09
2022-12-15T00:24:43.865Z,100737.19
2022-12-15T00:27:29.784Z,100738.28
2022-12-15T00:30:15.750Z,100726.31
2022-12-15T00:33:01.597Z,100740.84
2022-12-15T00:35:47.524Z,100729.94
2022-12-15T00:38:33.799Z,100740.47
2022-12-15T00:41:01.615Z,100730.38
2022-12-15T00:43:30.356Z,100718.69
2022-12-15T00:46:16.971Z,100726.88
2022-12-15T00:48:44.412Z,100730.75
2022-12-15T00:51:11.354Z,100731.03
2022-12-15T00:53:57.713Z,100721.03
2022-12-15T00:56:43.487Z,100731.69
2022-12-15T00:59:30.427Z,100735.53
2022-12-15T01:02:16.602Z,100733.38
2022-12-15T01:05:02.657Z,100742.13
2022-12-15T01:07:49.976Z,100738.59
2022-12-15T01:10:37.746Z,100739.44
2022-12-15T01:13:24.106Z,100737.28
2022-12-15T01:16:10.074Z,100746.50
2022-12-15T01:18:55.867Z,100742.72
2022-12-15T01:21:25.200Z,100749.81
2022-12-15T01:23:53.210Z,100742.47
2022-12-15T01:26:20.785Z,100747.03
2022-12-15T01:28:47.717Z,100768.09
2022-12-15T01:31:15.072Z,100773.88
2022-12-15T01:33:44.888Z,100785.06
2022-12-15T01:36:12.227Z,100769.41
2022-12-15T01:38:39.199Z,100773.47
2022-12-15T01:41:09.502Z,100767.75
2022-12-15T01:43:37.915Z,100759.13
2022-12-15T01:46:08.821Z,100763.72
2022-12-15T01:48:48.867Z,100762.91
2022-12-15T01:51:41.037Z,100777.59
2022-12-15T01:54:19.476Z,100779.19
2022-12-15T01:56:50.905Z,100774.91
2022-12-15T01:59:25.877Z,100774.75
2022-12-15T02:01:53.032Z,100776.97
2022-12-15T02:04:21.366Z,100782.34
2022-12-15T02:06:48.593Z,100778.84
2022-12-15T02:09:15.745Z,100771.72
2022-12-15T02:12:00.203Z,100775.53
2022-12-15T02:14:39.055Z,100775.56
2022-12-15T02:17:15.240Z,100778.88
2022-12-15T02:20:33.986Z,100787.63
2022-12-15T02:23:01.356Z,100786.06
2022-12-15T02:26:03.048Z,100782.00
2022-12-15T02:28:55.606Z,100782.06
2022-12-15T02:31:50.113Z,100781.28
2022-12-15T02:34:25.660Z,100793.59
2022-12-15T02:37:00.246Z,100798.50
2022-12-15T02:39:27.505Z,100802.63
2022-12-15T02:41:54.536Z,100801.78
2022-12-15T02:44:44.927Z,100794.75
2022-12-15T02:47:33.536Z,100799.91
2022-12-15T02:50:28.685Z,100797.41
2022-12-15T02:52:58.926Z,100795.97
2022-12-15T02:55:32.977Z,100791.03
2022-12-15T02:58:19.487Z,100789.38
2022-12-15T03:01:13.989Z,100797.56
2022-12-15T03:03:42.327Z,100795.41
2022-12-15T03:06:09.586Z,100801.38
2022-12-15T03:08:36.887Z,100807.88
2022-12-15T03:11:04.055Z,100811.66
2022-12-15T03:13:32.069Z,100808.03
2022-12-15T03:16:00.804Z,100807.44
2022-12-15T03:18:28.529Z,100814.00
2022-12-15T03:20:55.754Z,100808.09
2022-12-15T03:23:23.515Z,100812.81
2022-12-15T03:25:50.836Z,100814.47
2022-12-15T03:28:18.116Z,100813.16
2022-12-15T03:30:45.579Z,100808.25
2022-12-15T03:33:17.945Z,100812.34
2022-12-15T03:35:44.835Z,100811.53
2022-12-15T03:38:11.938Z,100810.75
2022-12-15T03:40:39.073Z,100810.00
2022-12-15T03:43:06.168Z,100822.53
2022-12-15T03:45:33.128Z,100819.00
2022-12-15T03:48:02.375Z,100828.50
2022-12-15T03:50:29.928Z,100822.72
2022-12-15T03:53:02.351Z,100815.63
2022-12-15T03:55:30.057Z,100822.72
2022-12-15T03:57:57.793Z,100811.78
2022-12-15T04:00:25.446Z,100816.34
2022-12-15T04:02:52.959Z,100812.22
2022-12-15T04:05:30.325Z,100813.78
2022-12-15T04:07:58.907Z,100818.19
2022-12-15T04:10:33.650Z,100815.50
2022-12-15T04:13:09.425Z,100827.09
2022-12-15T04:15:37.885Z,100821.66
2022-12-15T04:18:08.167Z,100814.59
2022-12-15T04:20:35.295Z,100819.50
2022-12-15T04:23:02.254Z,100816.78
2022-12-15T04:25:47.838Z,100815.16
2022-12-15T04:28:33.467Z,100815.19
2022-12-15T04:31:19.333Z,100815.19
2022-12-15T04:34:12.154Z,100820.91
2022-12-15T04:36:59.619Z,100815.19
2022-12-15T04:39:45.136Z,100814.66
2022-12-15T04:42:31.093Z,100822.03
2022-12-15T04:45:21.042Z,100817.69
2022-12-15T04:48:07.198Z,100823.97
2022-12-15T04:50:53.367Z,100817.94
2022-12-15T04:53:40.453Z,100814.44
2022-12-15T04:56:30.924Z,100815.78
2022-12-15T04:59:17.010Z,100814.69
2022-12-15T05:02:02.825Z,100828.06
2022-12-15T05:04:48.688Z,100833.78
2022-12-15T05:07:35.006Z,100825.34
2022-12-15T05:10:21.466Z,100837.59
2022-12-15T05:13:07.149Z,100841.13
2022-12-15T05:15:53.611Z,100837.03
2022-12-15T05:18:39.915Z,100835.94
2022-12-15T05:21:26.167Z,100840.56
2022-12-15T05:24:11.973Z,100843.25
2022-12-15T05:26:57.776Z,100847.31
2022-12-15T05:29:43.355Z,100840.72
2022-12-15T05:32:10.618Z,100847.28
2022-12-15T05:34:38.585Z,100852.78
2022-12-15T05:37:08.312Z,100837.00
2022-12-15T05:39:35.358Z,100843.84
2022-12-15T05:42:02.476Z,100850.91
2022-12-15T05:44:29.646Z,100845.75
2022-12-15T05:46:57.023Z,100845.47
2022-12-15T05:49:24.210Z,100846.56
2022-12-15T05:51:51.336Z,100848.75
2022-12-15T05:54:19.936Z,100849.28
2022-12-15T05:56:50.426Z,100854.72
2022-12-15T05:59:19.457Z,100855.56
2022-12-15T06:01:46.943Z,100850.38
2022-12-15T06:04:14.774Z,100847.13
2022-12-15T06:06:42.184Z,100858.84
2022-12-15T06:09:10.112Z,100853.94
2022-12-15T06:11:37.835Z,100860.75
2022-12-15T06:14:05.215Z,100852.81
2022-12-15T06:16:32.529Z,100859.91
2022-12-15T06:19:01.345Z,100866.47
2022-12-15T06:21:31.106Z,100867.47
2022-12-15T06:23:59.116Z,100864.19
2022-12-15T06:26:29.608Z,100875.09
2022-12-15T06:28:58.984Z,100874.00
2022-12-15T06:31:26.209Z,100873.72
2022-12-15T06:34:00.875Z,100869.38
2022-12-15T06:36:31.228Z,100875.06
2022-12-15T06:39:03.137Z,100873.16
2022-12-15T06:41:31.396Z,100874.25
2022-12-15T06:43:59.545Z,100875.28
2022-12-15T06:46:28.189Z,100871.72
2022-12-15T06:48:55.369Z,100875.25
2022-12-15T06:51:22.869Z,100868.16
2022-12-15T06:53:51.307Z,100863.25
2022-12-15T06:56:24.483Z,100868.41
2022-12-15T06:58:56.324Z,100873.84
2022-12-15T07:01:24.608Z,100874.09
2022-12-15T07:03:53.711Z,100873.22
2022-12-15T07:06:21.665Z,100884.00
2022-12-15T07:08:56.712Z,100885.03
2022-12-15T07:11:24.174Z,100886.94
2022-12-15T07:13:55.144Z,100888.28
2022-12-15T07:16:23.498Z,100875.19
2022-12-15T07:18:51.476Z,100874.94
2022-12-15T07:21:19.214Z,100879.78
2022-12-15T07:23:54.594Z,100878.97
2022-12-15T07:26:24.395Z,100883.03
2022-12-15T07:28:53.165Z,100890.16
2022-12-15T07:31:20.723Z,100891.81
2022-12-15T07:33:48.673Z,100890.22
2022-12-15T07:36:18.965Z,100892.38
2022-12-15T07:38:49.928Z,100889.28
2022-12-15T07:41:18.694Z,100887.94
2022-12-15T07:43:47.317Z,100889.03
2022-12-15T07:46:16.346Z,100898.44
2022-12-15T07:48:50.658Z,100896.00
2022-12-15T07:51:20.461Z,100894.97
2022-12-15T07:53:50.324Z,100900.47
2022-12-15T07:56:18.614Z,100907.56
2022-12-15T07:58:51.675Z,100908.44
2022-12-15T08:01:19.075Z,100910.28
2022-12-15T08:03:46.176Z,100910.97
2022-12-15T08:06:14.791Z,100910.63
2022-12-15T08:08:43.417Z,100911.47
2022-12-15T08:11:15.226Z,100908.13
2022-12-15T08:16:32.020Z,100924.44
2022-12-15T08:18:59.246Z,100913.69
2022-12-15T08:21:26.624Z,100918.56
2022-12-15T08:23:54.127Z,100926.25
2022-12-15T08:26:28.257Z,100935.88
2022-12-15T08:29:11.873Z,100932.50
2022-12-15T08:31:45.674Z,100937.09
2022-12-15T08:34:13.145Z,100937.34
2022-12-15T08:36:40.359Z,100945.56
2022-12-15T08:39:07.566Z,100947.81
2022-12-15T08:41:34.946Z,100936.84
2022-12-15T08:44:02.647Z,100926.69
2022-12-15T08:46:34.062Z,100931.22
2022-12-15T08:49:02.528Z,100930.28
2022-12-15T08:51:32.246Z,100934.03
2022-12-15T08:54:01.030Z,100932.22
2022-12-15T08:56:29.307Z,100938.66
2022-12-15T08:58:58.598Z,100938.84
2022-12-15T09:01:27.711Z,100937.56
2022-12-15T09:03:57.048Z,100937.75
2022-12-15T09:06:27.385Z,100931.16
2022-12-15T09:08:59.880Z,100931.50
2022-12-15T09:11:28.822Z,100929.41
2022-12-15T09:13:56.458Z,100924.34
2022-12-15T09:16:24.475Z,100931.75
2022-12-15T09:18:54.299Z,100932.84
2022-12-15T09:21:24.275Z,100936.41
2022-12-15T09:23:52.368Z,100942.63
2022-12-15T09:26:21.212Z,100945.75
2022-12-15T09:28:50.626Z,100948.69
2022-12-15T09:31:23.575Z,100947.06
2022-12-15T09:33:53.023Z,100956.66
2022-12-15T09:36:20.576Z,100957.84
2022-12-15T09:38:47.901Z,100957.84
2022-12-15T09:41:17.679Z,100967.81
2022-12-15T09:44:20.431Z,100963.72
2022-12-15T09:47:09.358Z,100968.78
2022-12-15T09:49:44.427Z,100971.75
2022-12-15T09:52:25.669Z,100965.94
2022-12-15T09:54:53.684Z,100964.94
2022-12-15T09:57:31.710Z,100970.94
2022-12-15T10:00:08.629Z,100961.91
2022-12-15T10:02:49.920Z,100973.50
2022-12-15T10:06:15.392Z,100974.50
2022-12-15T10:08:45.636Z,100974.72
2022-12-15T10:11:44.488Z,100980.81
2022-12-15T10:14:33.198Z,100972.09
2022-12-15T10:17:23.786Z,100970.34
2022-12-15T10:20:08.513Z,100965.25
2022-12-15T10:22:37.617Z,100965.34
2022-12-15T10:25:25.660Z,100971.22
2022-12-15T10:28:16.331Z,100970.44
2022-12-15T10:31:14.229Z,100972.25
2022-12-15T10:33:48.627Z,100978.81
2022-12-15T10:36:18.107Z,100980.41
2022-12-15T10:38:50.548Z,100972.59
2022-12-15T10:41:21.039Z,100964.81
2022-12-15T10:43:51.190Z,100968.38
2022-12-15T10:46:24.005Z,100967.72
2022-12-15T10:48:52.507Z,100974.59
2022-12-15T10:51:25.495Z,100966.44
2022-12-15T10:54:10.361Z,100975.91
2022-12-15T10:56:50.118Z,100969.63
2022-12-15T10:59:24.071Z,100960.97
2022-12-15T11:01:52.613Z,100967.72
2022-12-15T11:04:28.606Z,100967.78
2022-12-15T11:07:01.028Z,100976.53
2022-12-15T11:09:36.975Z,100966.31
2022-12-15T11:12:40.586Z,100963.63
2022-12-15T11:15:23.693Z,100973.53
2022-12-15T11:17:58.210Z,100965.28
2022-12-15T11:20:32.973Z,100965.09
2022-12-15T11:23:10.231Z,100972.13
2022-12-15T11:25:42.788Z,100966.66
2022-12-15T11:28:20.392Z,100957.41
2022-12-15T11:31:16.759Z,100966.66
2022-12-15T11:33:43.701Z,100963.06
2022-12-15T11:36:20.077Z,100960.63
2022-12-15T11:39:04.556Z,100956.81
2022-12-15T11:41:45.036Z,100963.03
2022-12-15T11:44:27.129Z,100957.13
2022-12-15T11:47:16.918Z,100967.81
2022-12-15T11:49:48.948Z,100968.19
2022-12-15T11:52:33.619Z,100955.38
2022-12-15T11:55:30.414Z,100963.50
2022-12-15T11:58:15.858Z,100950.56
2022-12-15T12:00:56.606Z,100956.00
2022-12-15T12:03:39.987Z,100959.69
2022-12-15T12:06:14.279Z,100958.69
2022-12-15T12:09:14.485Z,100956.44
2022-12-15T12:11:45.108Z,100959.78
2022-12-15T12:14:35.168Z,100960.50
2022-12-15T12:17:11.773Z,100956.69
2022-12-15T12:19:45.553Z,100950.06
2022-12-15T12:22:18.261Z,100950.25
2022-12-15T12:24:50.784Z,100944.28
2022-12-15T12:27:42.191Z,100947.88
2022-12-15T12:30:15.788Z,100929.91
2022-12-15T12:32:51.809Z,100935.94
2022-12-15T12:35:33.830Z,100936.25
2022-12-15T12:38:04.408Z,100918.22
2022-12-15T12:40:41.433Z,100921.97
2022-12-15T12:43:13.625Z,100912.03
2022-12-15T12:45:50.293Z,100919.31
2022-12-15T12:48:24.959Z,100909.09
2022-12-15T12:51:11.526Z,100902.78
2022-12-15T12:53:38.786Z,100905.69
2022-12-15T12:56:05.968Z,100898.53
2022-12-15T12:58:42.628Z,100896.44
2022-12-15T13:01:32.860Z,100895.47
2022-12-15T13:04:29.868Z,100897.25
2022-12-15T13:07:00.366Z,100886.16
2022-12-15T13:09:44.298Z,100886.00
2022-12-15T13:12:53.689Z,100879.47
2022-12-15T13:15:30.555Z,100879.97
2022-12-15T13:18:17.031Z,100872.69
2022-12-15T13:20:50.446Z,100878.84
2022-12-15T13:23:24.173Z,100882.63
2022-12-15T13:26:00.756Z,100886.31
2022-12-15T13:28:43.269Z,100888.75
2022-12-15T13:31:22.861Z,100873.81
2022-12-15T13:33:53.907Z,100882.91
2022-12-15T13:36:40.250Z,100879.84
2022-12-15T13:39:16.446Z,100883.41
2022-12-15T13:42:23.639Z,100886.78
2022-12-15T13:45:04.398Z,100888.06
2022-12-15T13:47:31.870Z,100878.81
2022-12-15T13:53:17.905Z,100873.00
2022-12-15T13:55:41.510Z,100874.75
2022-12-15T13:58:18.530Z,100869.41
2022-12-15T14:00:51.699Z,100856.75
2022-12-15T14:03:19.376Z,100866.47
2022-12-15T14:05:54.688Z,100861.13
2022-12-15T14:08:23.619Z,100861.22
2022-12-15T14:10:52.968Z,100864.50
2022-12-15T14:13:25.958Z,100865.13
2022-12-15T14:15:59.903Z,100867.56
2022-12-15T14:18:28.869Z,100875.19
2022-12-15T14:20:56.878Z,100864.31
2022-12-15T14:23:30.497Z,100863.00
2022-12-15T14:26:03.947Z,100869.63
2022-12-15T14:28:34.970Z,100868.19
2022-12-15T14:31:15.281Z,100864.06
2022-12-15T14:33:44.788Z,100860.56
2022-12-15T14:36:20.416Z,100851.25
2022-12-15T14:39:01.187Z,100848.25
2022-12-15T14:41:32.386Z,100852.44
2022-12-15T14:44:31.796Z,100842.06
2022-12-15T14:46:55.068Z,100837.06
2022-12-15T14:49:26.066Z,100833.44
2022-12-15T14:51:57.987Z,100845.63
2022-12-15T14:54:37.893Z,100845.31
2022-12-15T14:57:21.604Z,100843.63
2022-12-15T14:59:49.605Z,100835.28
2022-12-15T15:02:28.894Z,100848.00
2022-12-15T15:03:05.643Z,100876.53
2022-12-15T15:04:58.331Z,100843.97
2022-12-15T15:07:26.697Z,100850.25
2022-12-15T15:09:54.646Z,100848.97
2022-12-15T15:12:24.623Z,100848.13
2022-12-15T15:15:04.527Z,100849.69
2022-12-15T15:17:39.487Z,100853.78
2022-12-15T15:20:17.856Z,100855.09
2022-12-15T15:22:47.129Z,100851.72
2022-12-15T15:25:40.855Z,100854.59
2022-12-15T15:28:25.557Z,100845.53
2022-12-15T15:30:59.663Z,100837.50
2022-12-15T15:33:27.888Z,100837.50
2022-12-15T15:36:00.046Z,100846.69
2022-12-15T15:38:35.207Z,100844.03
2022-12-15T15:41:12.787Z,100847.97
2022-12-15T15:43:42.488Z,100843.81
2022-12-15T15:46:25.867Z,100845.75
2022-12-15T15:48:58.672Z,100844.47
2022-12-15T15:51:27.087Z,100834.88
2022-12-15T15:53:56.539Z,100842.72
2022-12-15T15:56:24.111Z,100845.53
2022-12-15T15:58:51.827Z,100843.59
2022-12-15T16:01:19.356Z,100844.09
2022-12-15T16:03:50.495Z,100844.78
2022-12-15T16:06:20.228Z,100858.66
2022-12-15T16:08:50.889Z,100842.78
2022-12-15T16:11:18.324Z,100849.94
2022-12-15T16:13:45.585Z,100849.22
2022-12-15T16:16:19.207Z,100845.84
2022-12-15T16:18:46.922Z,100851.66
2022-12-15T16:21:15.546Z,100851.13
2022-12-15T16:23:45.418Z,100849.69
2022-12-15T16:26:18.629Z,100842.38
2022-12-15T16:28:45.931Z,100847.31
2022-12-15T16:31:16.509Z,100854.50
2022-12-15T16:33:44.358Z,100853.78
2022-12-15T16:36:15.250Z,100862.84
2022-12-15T16:38:43.781Z,100869.66
2022-12-15T16:41:15.647Z,100872.13
2022-12-15T16:43:47.973Z,100872.31
2022-12-15T16:46:20.561Z,100864.94
2022-12-15T16:49:28.010Z,100869.63
2022-12-15T16:51:57.688Z,100838.84
2022-12-15T16:54:29.557Z,100853.66
2022-12-15T16:56:58.237Z,100855.09
2022-12-15T16:59:33.879Z,100856.78
2022-12-15T17:02:02.374Z,100857.38
2022-12-15T17:04:29.687Z,100859.09
2022-12-15T17:06:57.310Z,100862.69
2022-12-15T17:10:32.968Z,100864.88
2022-12-15T17:17:48.285Z,100877.72
2022-12-15T17:20:30.482Z,100887.91
2022-12-15T17:23:07.752Z,100879.13
2022-12-15T17:28:31.502Z,100889.81
2022-12-15T17:30:59.994Z,100891.44
2022-12-15T17:33:30.523Z,100888.78
2022-12-15T17:36:04.581Z,100884.94
2022-12-15T17:38:32.170Z,100891.66
2022-12-15T17:40:59.548Z,100890.84
2022-12-15T17:43:33.692Z,100889.00
2022-12-15T17:46:03.434Z,100894.09
2022-12-15T17:48:30.860Z,100887.59
2022-12-15T17:50:58.874Z,100884.44
2022-12-15T17:53:26.533Z,100889.81
2022-12-15T17:55:54.253Z,100886.78
2022-12-15T17:58:24.668Z,100893.28
2022-12-15T18:00:54.023Z,100893.19
2022-12-15T18:03:21.491Z,100894.59
2022-12-15T18:05:51.137Z,100896.34
2022-12-15T18:08:36.372Z,100897.44
2022-12-15T18:11:03.364Z,100901.50
2022-12-15T18:13:35.750Z,100898.94
2022-12-15T18:16:02.979Z,100889.97
2022-12-15T18:18:30.068Z,100890.97
2022-12-15T18:21:02.674Z,100891.72
2022-12-15T18:23:31.161Z,100893.63
2022-12-15T18:26:02.910Z,100901.41
2022-12-15T18:28:32.542Z,100897.13
2022-12-15T18:31:22.914Z,100906.56
2022-12-15T18:33:50.140Z,100907.53
2022-12-15T18:36:17.095Z,100909.44
2022-12-15T18:38:44.000Z,100903.53
2022-12-15T18:41:16.286Z,100918.06
2022-12-15T18:43:44.832Z,100904.72
2022-12-15T18:46:16.089Z,100915.09
2022-12-15T18:48:43.693Z,100920.25
2022-12-15T18:51:19.888Z,100917.16
2022-12-15T18:53:48.924Z,100909.44
2022-12-15T18:56:18.540Z,100924.41
2022-12-15T18:58:46.049Z,100925.75
2022-12-15T19:01:13.519Z,100924.66
2022-12-15T19:03:41.693Z,100920.56
2022-12-15T19:06:35.081Z,100925.66
2022-12-15T19:09:08.957Z,100922.72
2022-12-15T19:11:36.589Z,100925.97
2022-12-15T19:14:04.270Z,100935.03
2022-12-15T19:16:51.835Z,100929.97
2022-12-15T19:19:37.749Z,100944.34
2022-12-15T19:22:27.129Z,100942.94
2022-12-15T19:24:54.780Z,100947.09
2022-12-15T19:27:26.599Z,100943.09
2022-12-15T19:29:54.799Z,100940.28
2022-12-15T19:32:23.150Z,100946.59
2022-12-15T19:34:51.282Z,100950.94
2022-12-15T19:37:28.714Z,100952.06
2022-12-15T19:39:57.826Z,100953.63
2022-12-15T19:42:35.918Z,100951.56
2022-12-15T19:45:19.560Z,100954.66
2022-12-15T19:47:47.010Z,100944.59
2022-12-15T19:50:19.849Z,100948.59
2022-12-15T19:52:50.600Z,100952.06
2022-12-15T19:55:21.802Z,100952.91
2022-12-15T19:57:48.990Z,100948.00
2022-12-15T20:00:18.329Z,100951.41
2022-12-15T20:02:46.139Z,100955.25
2022-12-15T20:05:13.328Z,100962.06
2022-12-15T20:07:41.082Z,100952.94
2022-12-15T20:10:22.017Z,100958.31
2022-12-15T20:12:51.603Z,100973.78
2022-12-15T20:15:26.334Z,100970.38
2022-12-15T20:17:57.641Z,100962.22
2022-12-15T20:20:27.160Z,100960.78
2022-12-15T20:22:56.759Z,100964.06
2022-12-15T20:25:31.005Z,100960.72
2022-12-15T20:28:00.420Z,100968.78
2022-12-15T20:30:33.173Z,100974.88
2022-12-15T20:33:02.251Z,100975.69
2022-12-15T20:35:32.070Z,100976.69
2022-12-15T20:37:59.820Z,100978.94
2022-12-15T20:40:30.022Z,100974.53
2022-12-15T20:42:58.020Z,100992.34
2022-12-15T20:45:27.083Z,100996.50
2022-12-15T20:48:00.530Z,100997.25
2022-12-15T20:51:57.589Z,100999.81
2022-12-15T20:54:45.689Z,100992.16
2022-12-15T20:57:16.642Z,100999.16
2022-12-15T20:59:45.148Z,101009.00
2022-12-15T21:02:21.023Z,101011.16
2022-12-15T21:04:49.189Z,101010.88
2022-12-15T21:07:16.820Z,101011.31
2022-12-15T21:09:44.240Z,101011.31
2022-12-15T21:12:22.969Z,101013.97
2022-12-15T21:14:50.531Z,101016.13
2022-12-15T21:17:20.178Z,101019.63
2022-12-15T21:19:47.576Z,101024.66
2022-12-15T21:22:19.090Z,101039.19
2022-12-15T21:24:50.351Z,101035.31
2022-12-15T21:27:20.080Z,101030.81
2022-12-15T21:29:52.349Z,101046.06
2022-12-15T21:32:23.480Z,101045.78
2022-12-15T21:34:51.808Z,101062.09
2022-12-15T21:37:28.498Z,101061.88
2022-12-15T22:03:14.090Z,101052.97
2022-12-15T22:05:42.049Z,101052.69
2022-12-15T22:11:23.400Z,101046.22
2022-12-15T22:13:51.948Z,101051.25
2022-12-15T22:16:20.142Z,101056.00
2022-12-15T22:18:52.590Z,101064.34
2022-12-15T22:21:26.050Z,101057.72
2022-12-15T22:23:53.530Z,101075.66
2022-12-15T22:26:30.073Z,101076.25
2022-12-15T22:29:01.295Z,101076.28
2022-12-15T22:31:29.448Z,101078.16
2022-12-15T22:33:56.991Z,101078.16
2022-12-15T22:36:24.381Z,101075.44
2022-12-15T22:38:51.641Z,101081.19
2022-12-15T22:41:21.719Z,101068.34
2022-12-15T22:44:07.421Z,101059.06
2022-12-15T22:50:38.550Z,101060.47
2022-12-15T22:53:21.682Z,101059.44
2022-12-15T22:55:52.489Z,101073.47
2022-12-15T22:58:26.108Z,101069.75
2022-12-15T23:00:56.031Z,101073.59
2022-12-15T23:03:23.471Z,101074.06
2022-12-15T23:05:51.379Z,101080.50
2022-12-15T23:08:19.320Z,101082.91
2022-12-15T23:11:05.050Z,101094.53
2022-12-15T23:13:32.789Z,101097.22
2022-12-15T23:16:19.251Z,101101.38
2022-12-15T23:19:02.616Z,101094.38
2022-12-15T23:21:29.822Z,101097.66
2022-12-15T23:23:57.882Z,101101.94
2022-12-15T23:26:26.268Z,101104.69
2022-12-15T23:28:56.943Z,101101.31
2022-12-15T23:31:24.263Z,101101.81
2022-12-15T23:33:52.079Z,101099.59
2022-12-15T23:36:19.448Z,101106.34
2022-12-15T23:38:46.611Z,101100.88
2022-12-15T23:41:18.340Z,101109.53
2022-12-15T23:43:46.548Z,101094.84
2022-12-15T23:46:14.382Z,101108.84
2022-12-15T23:48:43.420Z,101108.13
2022-12-15T23:51:13.829Z,101120.13
2022-12-15T23:53:41.671Z,101118.91
2022-12-15T23:56:15.603Z,101125.19
2022-12-15T23:58:44.199Z,101132.50
